createdAt,value
2023-05-11T00:02:48.600Z,17.88
2023-05-11T00:07:45.358Z,17.15
2023-05-11T00:12:41.896Z,17.58
2023-05-11T00:17:38.376Z,16.02
2023-05-11T00:22:34.882Z,17.85
2023-05-11T00:27:31.391Z,17.38
2023-05-11T00:32:29.300Z,15.40
2023-05-11T00:37:26.179Z,17.27
2023-05-11T00:42:22.722Z,16.20
2023-05-11T00:47:19.166Z,16.10
2023-05-11T00:52:15.613Z,15.10
2023-05-11T00:57:12.005Z,16.40
2023-05-11T01:02:08.985Z,15.80
2023-05-11T01:07:20.873Z,16.90
2023-05-11T01:12:30.155Z,17.60
2023-05-11T01:18:10.457Z,18.35
2023-05-11T01:23:19.046Z,16.98
2023-05-11T01:28:35.823Z,18.55
2023-05-11T01:33:35.164Z,16.00
2023-05-11T01:38:34.506Z,18.17
2023-05-11T01:43:35.306Z,17.50
2023-05-11T01:48:35.445Z,18.25
2023-05-11T01:53:36.915Z,15.90
2023-05-11T01:58:36.168Z,15.37
2023-05-11T02:03:35.514Z,11.90
2023-05-11T02:08:32.806Z,12.02
2023-05-11T02:13:30.279Z,12.30
2023-05-11T02:18:29.627Z,11.73
2023-05-11T02:23:27.576Z,12.93
2023-05-11T02:28:24.110Z,12.63
2023-05-11T02:33:25.264Z,12.90
2023-05-11T02:38:29.955Z,12.30
2023-05-11T02:43:32.240Z,13.57
2023-05-11T02:48:32.337Z,13.95
2023-05-11T02:53:31.571Z,13.63
2023-05-11T02:58:30.346Z,14.10
2023-05-11T03:03:27.975Z,14.25
2023-05-11T03:08:24.764Z,14.25
2023-05-11T03:13:24.041Z,14.90
2023-05-11T03:18:21.856Z,16.83
2023-05-11T03:23:19.301Z,15.50
2023-05-11T03:28:20.316Z,15.40
2023-05-11T03:33:16.804Z,17.63
2023-05-11T03:38:15.261Z,16.83
2023-05-11T03:43:14.719Z,17.00
2023-05-11T03:48:14.382Z,16.35
2023-05-11T03:53:12.080Z,18.65
2023-05-11T03:58:09.125Z,19.58
2023-05-11T04:03:06.705Z,19.30
2023-05-11T04:08:04.625Z,17.83
2023-05-11T04:13:01.019Z,20.55
2023-05-11T04:17:57.620Z,17.27
2023-05-11T04:29:40.449Z,17.55
2023-05-11T04:47:06.167Z,17.73
2023-05-11T04:52:02.707Z,17.63
2023-05-11T04:57:03.620Z,15.80
2023-05-11T05:02:01.316Z,17.58
2023-05-11T05:07:01.389Z,15.98
2023-05-11T05:11:58.725Z,16.40
2023-05-11T05:16:55.347Z,15.27
2023-05-11T05:21:54.532Z,17.77
2023-05-11T05:32:55.204Z,19.88
2023-05-11T05:37:52.223Z,18.40
2023-05-11T05:43:02.456Z,19.15
2023-05-11T05:48:00.886Z,19.88
2023-05-11T05:52:58.485Z,13.85
2023-05-11T05:58:13.519Z,13.77
2023-05-11T06:03:12.068Z,14.05
2023-05-11T06:08:10.908Z,13.23
2023-05-11T06:13:09.799Z,13.93
2023-05-11T06:18:08.169Z,14.27
2023-05-11T06:23:06.032Z,12.15
2023-05-11T06:28:02.848Z,16.02
2023-05-11T06:46:21.604Z,14.80
2023-05-11T06:51:18.466Z,15.07
2023-05-11T06:56:19.997Z,15.30
2023-05-11T07:12:16.808Z,16.63
2023-05-11T07:34:14.552Z,17.38
2023-05-11T07:39:13.565Z,18.38
2023-05-11T07:50:09.693Z,15.60
2023-05-11T07:55:07.887Z,17.50
2023-05-11T08:00:11.223Z,16.52
2023-05-11T08:05:09.276Z,16.67
2023-05-11T08:10:06.916Z,19.25
2023-05-11T08:15:07.414Z,15.85
2023-05-11T08:20:07.000Z,17.75
2023-05-11T08:25:04.678Z,18.45
2023-05-11T08:30:02.468Z,17.60
2023-05-11T08:34:59.672Z,16.27
2023-05-11T08:39:57.395Z,16.92
2023-05-11T08:51:04.434Z,18.73
2023-05-11T08:56:11.901Z,17.52
2023-05-11T09:13:00.704Z,15.82
2023-05-11T09:41:55.461Z,18.55
2023-05-11T09:47:10.874Z,18.42
2023-05-11T09:52:07.518Z,18.27
2023-05-11T09:57:04.556Z,17.98
2023-05-11T10:02:33.794Z,19.00
2023-05-11T10:07:52.643Z,16.38
2023-05-11T10:12:52.671Z,16.77
2023-05-11T10:17:55.988Z,16.83
2023-05-11T10:22:57.626Z,17.65
2023-05-11T10:33:58.194Z,16.25
2023-05-11T10:38:56.587Z,16.08
2023-05-11T10:44:28.492Z,14.75
2023-05-11T10:49:45.501Z,14.95
2023-05-11T10:54:50.975Z,15.18
2023-05-11T11:25:24.798Z,14.10
2023-05-11T11:37:52.676Z,14.68
2023-05-11T11:43:40.572Z,13.90
2023-05-11T11:49:03.321Z,14.18
2023-05-11T12:05:41.647Z,13.20
2023-05-11T12:10:39.411Z,12.65
2023-05-11T12:15:37.762Z,12.88
2023-05-11T12:20:53.330Z,12.82
2023-05-11T14:27:14.281Z,12.23
2023-05-11T14:32:23.277Z,13.20
2023-05-11T15:02:03.863Z,13.70
2023-05-11T15:07:46.121Z,12.85
2023-05-11T15:18:47.121Z,13.27
2023-05-11T15:29:34.780Z,14.10
2023-05-11T15:41:08.599Z,13.07
2023-05-11T15:46:05.821Z,12.00
2023-05-11T15:51:03.363Z,12.55
2023-05-11T15:56:05.428Z,13.55
2023-05-11T16:13:31.806Z,13.68
2023-05-11T16:49:41.702Z,15.23
2023-05-11T17:05:55.402Z,15.07
2023-05-11T17:11:08.407Z,15.93
2023-05-11T17:16:04.949Z,16.23
2023-05-11T17:21:01.524Z,17.20
2023-05-11T17:25:58.257Z,16.38
2023-05-11T17:30:54.677Z,14.43
2023-05-11T17:35:51.393Z,14.85
2023-05-11T17:40:47.840Z,15.38
2023-05-11T17:45:47.061Z,16.80
2023-05-11T17:50:50.185Z,17.70
2023-05-11T17:55:47.064Z,18.08
2023-05-11T18:00:46.897Z,17.83
2023-05-11T18:05:48.872Z,17.35
2023-05-11T18:10:45.714Z,18.35
2023-05-11T18:15:43.297Z,17.17
2023-05-11T18:20:40.037Z,17.25
2023-05-11T18:25:36.509Z,17.92
2023-05-11T18:30:33.935Z,17.35
2023-05-11T18:35:30.434Z,16.58
2023-05-11T18:40:27.221Z,15.23
2023-05-11T18:45:23.873Z,14.75
2023-05-11T18:50:20.643Z,14.95
2023-05-11T18:55:17.754Z,16.30
2023-05-11T19:00:14.468Z,15.18
2023-05-11T19:05:11.120Z,14.63
2023-05-11T19:10:08.062Z,14.23
2023-05-11T19:15:06.169Z,13.80
2023-05-11T19:20:06.946Z,14.00
2023-05-11T19:25:07.251Z,13.38
2023-05-11T19:30:04.549Z,12.73
2023-05-11T19:35:01.673Z,14.23
2023-05-11T19:40:18.844Z,14.15
2023-05-11T19:45:17.429Z,13.23
2023-05-11T19:50:14.718Z,13.02
2023-05-11T19:55:11.180Z,14.00
2023-05-11T20:00:08.006Z,12.60
2023-05-11T20:05:04.601Z,12.40
2023-05-11T20:10:01.130Z,13.23
2023-05-11T20:14:57.557Z,12.98
2023-05-11T20:19:53.968Z,13.30
2023-05-11T20:24:50.453Z,11.65
2023-05-11T20:29:46.923Z,10.93
2023-05-11T20:34:43.357Z,9.98
2023-05-11T20:39:40.116Z,9.18
2023-05-11T20:44:36.702Z,9.82
2023-05-11T20:49:38.842Z,8.68
2023-05-11T20:54:36.440Z,8.38
2023-05-11T21:04:32.207Z,7.95
2023-05-11T21:09:29.002Z,8.15
2023-05-11T21:14:25.433Z,7.97
2023-05-11T21:19:21.890Z,7.63
2023-05-11T21:24:18.364Z,8.52
2023-05-11T21:29:15.180Z,8.10
2023-05-11T21:34:11.898Z,9.02
2023-05-11T21:39:10.717Z,8.10
2023-05-11T21:44:07.728Z,7.95
2023-05-11T21:49:04.119Z,7.97
2023-05-11T21:54:00.521Z,7.47
2023-05-11T21:58:56.959Z,7.45
2023-05-11T22:03:53.477Z,7.50
2023-05-11T22:08:49.950Z,8.20
2023-05-11T22:13:46.378Z,8.25
2023-05-11T22:18:46.733Z,8.00
2023-05-11T22:23:43.253Z,8.43
2023-05-11T22:28:39.733Z,8.98
2023-05-11T22:33:36.276Z,8.07
2023-05-11T22:38:34.145Z,8.10
2023-05-11T22:43:30.590Z,8.18
2023-05-11T22:48:27.040Z,8.30
2023-05-11T22:53:23.447Z,9.25
2023-05-11T22:58:19.985Z,9.18
2023-05-11T23:03:16.524Z,7.88
2023-05-11T23:08:13.082Z,8.13
2023-05-11T23:13:11.284Z,8.57
2023-05-11T23:18:07.800Z,8.27
2023-05-11T23:23:04.417Z,8.90
2023-05-11T23:28:00.812Z,8.23
2023-05-11T23:32:57.280Z,8.75
2023-05-11T23:37:53.787Z,8.27
2023-05-11T23:42:50.168Z,8.50
2023-05-11T23:47:46.793Z,8.68
2023-05-11T23:52:43.435Z,8.77
2023-05-11T23:57:39.922Z,7.95
